createdAt,value
2023-01-02T00:00:55.092Z,96981.56
2023-01-02T00:03:22.253Z,96985.34
2023-01-02T00:05:49.317Z,96987.78
2023-01-02T00:08:19.023Z,96980.38
2023-01-02T00:10:45.922Z,96987.78
2023-01-02T00:13:13.415Z,96984.59
2023-01-02T00:15:40.331Z,96980.16
2023-01-02T00:18:07.328Z,96980.13
2023-01-02T00:20:34.754Z,96976.94
2023-01-02T00:23:01.957Z,96966.31
2023-01-02T00:25:28.818Z,96959.31
2023-01-02T00:27:56.742Z,96966.31
2023-01-02T00:30:23.699Z,96963.31
2023-01-02T00:32:50.769Z,96964.13
2023-01-02T00:35:17.729Z,96953.28
2023-01-02T00:37:44.710Z,96950.09
2023-01-02T00:40:15.222Z,96956.88
2023-01-02T00:42:42.859Z,96950.47
2023-01-02T00:45:10.901Z,96942.84
2023-01-02T00:47:37.873Z,96940.44
2023-01-02T00:50:05.829Z,96937.28
2023-01-02T00:52:32.809Z,96932.06
2023-01-02T00:54:59.697Z,96925.09
2023-01-02T00:57:26.680Z,96924.09
2023-01-02T00:59:53.871Z,96918.91
2023-01-02T01:02:21.040Z,96921.91
2023-01-02T01:04:48.029Z,96914.72
2023-01-02T01:07:14.967Z,96912.94
2023-01-02T01:09:41.863Z,96920.09
2023-01-02T01:12:10.085Z,96910.09
2023-01-02T01:14:36.889Z,96912.06
2023-01-02T01:17:04.043Z,96913.22
2023-01-02T01:19:35.127Z,96918.00
2023-01-02T01:22:02.448Z,96910.38
2023-01-02T01:24:29.487Z,96916.16
2023-01-02T01:26:56.589Z,96912.16
2023-01-02T01:29:23.643Z,96914.13
2023-01-02T01:31:50.827Z,96912.09
2023-01-02T01:34:18.078Z,96910.31
2023-01-02T01:36:45.164Z,96921.50
2023-01-02T01:39:12.182Z,96915.94
2023-01-02T01:41:39.302Z,96917.53
2023-01-02T01:44:45.300Z,96909.94
2023-01-02T01:47:40.279Z,96910.13
2023-01-02T01:50:11.501Z,96896.31
2023-01-02T01:52:45.745Z,96897.91
2023-01-02T01:55:21.360Z,96899.53
2023-01-02T01:57:57.476Z,96895.31
2023-01-02T02:00:24.561Z,96894.69
2023-01-02T02:02:58.466Z,96896.09
2023-01-02T02:05:28.319Z,96884.09
2023-01-02T02:08:08.541Z,96888.28
2023-01-02T02:10:37.539Z,96892.88
2023-01-02T02:13:04.975Z,96895.28
2023-01-02T02:15:46.415Z,96884.69
2023-01-02T02:18:35.259Z,96884.50
2023-01-02T02:21:27.220Z,96875.50
2023-01-02T02:24:29.563Z,96872.91
2023-01-02T02:27:02.616Z,96885.91
2023-01-02T02:30:00.650Z,96870.28
2023-01-02T02:32:46.560Z,96870.72
2023-01-02T02:35:16.310Z,96867.06
2023-01-02T02:38:01.721Z,96868.84
2023-01-02T02:40:50.267Z,96865.66
2023-01-02T02:43:24.530Z,96851.88
2023-01-02T02:46:03.615Z,96859.22
2023-01-02T02:48:48.565Z,96863.19
2023-01-02T02:51:36.040Z,96865.38
2023-01-02T02:54:26.339Z,96853.59
2023-01-02T02:56:55.464Z,96852.56
2023-01-02T02:59:23.718Z,96852.19
2023-01-02T03:01:51.068Z,96842.22
2023-01-02T03:04:20.519Z,96835.00
2023-01-02T03:07:10.900Z,96842.59
2023-01-02T03:10:04.778Z,96835.97
2023-01-02T03:12:40.488Z,96842.56
2023-01-02T03:15:17.735Z,96841.91
2023-01-02T03:18:22.341Z,96842.06
2023-01-02T03:21:12.922Z,96836.25
2023-01-02T03:23:46.685Z,96829.84
2023-01-02T03:26:17.954Z,96840.03
2023-01-02T03:28:48.949Z,96837.66
2023-01-02T03:31:20.149Z,96826.41
2023-01-02T03:33:54.725Z,96825.63
2023-01-02T03:36:30.662Z,96827.59
2023-01-02T03:39:17.122Z,96830.78
2023-01-02T03:41:56.079Z,96828.00
2023-01-02T03:44:26.780Z,96828.41
2023-01-02T03:47:02.541Z,96820.84
2023-01-02T03:49:34.581Z,96824.84
2023-01-02T03:52:01.667Z,96818.06
2023-01-02T03:54:30.173Z,96814.88
2023-01-02T03:57:10.361Z,96812.66
2023-01-02T03:59:37.379Z,96806.28
2023-01-02T04:02:22.866Z,96809.25
2023-01-02T04:04:55.763Z,96809.84
2023-01-02T04:07:41.829Z,96805.63
2023-01-02T04:10:11.394Z,96797.63
2023-01-02T04:12:41.287Z,96802.19
2023-01-02T04:15:11.987Z,96801.97
2023-01-02T04:18:42.967Z,96804.72
2023-01-02T04:21:19.217Z,96802.50
2023-01-02T04:23:52.385Z,96803.44
2023-01-02T04:26:29.687Z,96806.84
2023-01-02T04:28:57.060Z,96813.97
2023-01-02T04:31:42.525Z,96815.53
2023-01-02T04:34:13.909Z,96816.94
2023-01-02T04:36:41.748Z,96820.88
2023-01-02T04:39:09.000Z,96822.84
2023-01-02T04:41:38.098Z,96814.25
2023-01-02T04:44:05.679Z,96822.66
2023-01-02T04:46:33.080Z,96819.88
2023-01-02T04:49:00.140Z,96823.50
2023-01-02T04:51:27.456Z,96815.19
2023-01-02T04:53:55.068Z,96817.19
2023-01-02T04:56:22.479Z,96820.22
2023-01-02T04:58:49.885Z,96818.41
2023-01-02T05:01:19.309Z,96812.22
2023-01-02T05:03:50.248Z,96805.44
2023-01-02T05:06:17.541Z,96809.84
2023-01-02T05:08:45.052Z,96812.19
2023-01-02T05:11:21.422Z,96819.97
2023-01-02T05:13:48.681Z,96808.97
2023-01-02T05:16:15.735Z,96816.56
2023-01-02T05:18:42.861Z,96807.81
2023-01-02T05:21:31.254Z,96815.97
2023-01-02T05:24:00.712Z,96811.28
2023-01-02T05:26:28.382Z,96818.84
2023-01-02T05:28:55.679Z,96809.22
2023-01-02T05:31:22.650Z,96808.59
2023-01-02T05:33:57.700Z,96808.78
2023-01-02T05:36:26.151Z,96806.38
2023-01-02T05:38:53.633Z,96812.75
2023-01-02T05:41:22.031Z,96812.13
2023-01-02T05:43:48.961Z,96814.38
2023-01-02T05:46:19.717Z,96804.75
2023-01-02T05:48:46.975Z,96806.19
2023-01-02T05:51:16.656Z,96802.97
2023-01-02T05:53:43.741Z,96800.19
2023-01-02T05:56:16.321Z,96794.81
2023-01-02T05:58:48.474Z,96802.38
2023-01-02T06:01:20.890Z,96798.94
2023-01-02T06:03:53.127Z,96800.47
2023-01-02T06:06:25.755Z,96792.44
2023-01-02T06:08:53.331Z,96802.81
2023-01-02T06:11:20.492Z,96805.56
2023-01-02T06:13:47.747Z,96799.78
2023-01-02T06:16:14.702Z,96802.56
2023-01-02T06:18:41.711Z,96800.94
2023-01-02T06:21:11.371Z,96811.69
2023-01-02T06:23:38.678Z,96805.63
2023-01-02T06:26:20.257Z,96812.81
2023-01-02T06:28:51.175Z,96817.38
2023-01-02T06:31:20.003Z,96809.94
2023-01-02T06:33:47.249Z,96811.94
2023-01-02T06:36:16.650Z,96820.31
2023-01-02T06:38:44.552Z,96809.16
2023-01-02T06:41:12.083Z,96813.53
2023-01-02T06:43:44.507Z,96818.38
2023-01-02T06:46:12.710Z,96808.78
2023-01-02T06:48:41.119Z,96817.00
2023-01-02T06:51:09.759Z,96811.00
2023-01-02T06:53:39.269Z,96820.22
2023-01-02T06:56:07.034Z,96812.44
2023-01-02T06:58:35.797Z,96817.63
2023-01-02T07:01:08.642Z,96807.25
2023-01-02T07:03:36.083Z,96811.25
2023-01-02T07:06:07.578Z,96815.47
2023-01-02T07:08:34.949Z,96813.69
2023-01-02T07:11:09.100Z,96810.88
2023-01-02T07:13:36.189Z,96814.16
2023-01-02T07:16:08.686Z,96824.63
2023-01-02T07:18:36.739Z,96828.69
2023-01-02T07:21:08.013Z,96816.56
2023-01-02T07:23:35.400Z,96828.00
2023-01-02T07:26:04.504Z,96825.59
2023-01-02T07:28:32.221Z,96822.38
2023-01-02T07:31:01.022Z,96818.81
2023-01-02T07:33:28.978Z,96826.19
2023-01-02T07:36:00.364Z,96820.81
2023-01-02T07:38:27.850Z,96822.84
2023-01-02T07:40:55.620Z,96821.88
2023-01-02T07:43:23.431Z,96814.16
2023-01-02T07:45:51.140Z,96809.03
2023-01-02T07:48:18.872Z,96809.94
2023-01-02T07:50:46.126Z,96807.97
2023-01-02T07:53:13.433Z,96811.81
2023-01-02T07:55:40.540Z,96804.69
2023-01-02T07:58:07.951Z,96796.72
2023-01-02T08:00:34.958Z,96807.34
2023-01-02T08:03:02.487Z,96806.59
2023-01-02T08:05:29.526Z,96802.22
2023-01-02T08:07:56.470Z,96804.66
2023-01-02T08:10:23.474Z,96812.44
2023-01-02T08:12:50.417Z,96814.03
2023-01-02T08:15:17.441Z,96818.03
2023-01-02T08:17:44.463Z,96817.88
2023-01-02T08:20:11.816Z,96827.25
2023-01-02T08:22:38.878Z,96825.25
2023-01-02T08:25:06.610Z,96826.25
2023-01-02T08:27:33.592Z,96818.28
2023-01-02T08:30:00.520Z,96820.88
2023-01-02T08:32:27.624Z,96816.06
2023-01-02T08:34:54.667Z,96821.28
2023-01-02T08:37:21.799Z,96817.50
2023-01-02T08:39:48.797Z,96823.31
2023-01-02T08:42:15.935Z,96825.94
2023-01-02T08:44:43.559Z,96821.97
2023-01-02T08:47:10.617Z,96828.38
2023-01-02T08:49:37.647Z,96824.38
2023-01-02T08:52:05.182Z,96822.97
2023-01-02T08:54:32.326Z,96824.97
2023-01-02T08:56:59.352Z,96822.97
2023-01-02T08:59:26.769Z,96816.19
2023-01-02T09:01:54.377Z,96813.59
2023-01-02T09:04:21.605Z,96808.41
2023-01-02T09:06:48.562Z,96814.00
2023-01-02T09:09:16.950Z,96806.97
2023-01-02T09:11:50.930Z,96815.19
2023-01-02T09:14:22.409Z,96817.22
2023-01-02T09:16:51.130Z,96813.00
2023-01-02T09:19:18.897Z,96813.19
2023-01-02T09:21:46.025Z,96803.94
2023-01-02T09:24:13.082Z,96809.72
2023-01-02T09:26:42.665Z,96812.28
2023-01-02T09:29:11.218Z,96810.00
2023-01-02T09:31:38.843Z,96813.00
2023-01-02T09:34:05.859Z,96817.31
2023-01-02T09:36:33.231Z,96813.50
2023-01-02T09:39:01.868Z,96810.59
2023-01-02T09:41:44.440Z,96808.88
2023-01-02T09:44:17.647Z,96807.00
2023-01-02T09:46:49.645Z,96808.81
2023-01-02T09:49:41.432Z,96810.72
2023-01-02T09:52:13.950Z,96802.78
2023-01-02T09:54:40.978Z,96798.50
2023-01-02T09:57:16.762Z,96804.69
2023-01-02T09:59:57.886Z,96797.47
2023-01-02T10:02:34.142Z,96793.78
2023-01-02T10:05:33.178Z,96789.53
2023-01-02T10:08:25.098Z,96785.66
2023-01-02T10:11:15.184Z,96779.63
2023-01-02T10:14:17.370Z,96776.13
2023-01-02T10:16:33.317Z,96764.81
2023-01-02T10:19:05.622Z,96762.72
2023-01-02T10:21:38.697Z,96754.78
2023-01-02T10:24:13.807Z,96747.25
2023-01-02T10:26:47.349Z,96751.00
2023-01-02T10:29:31.921Z,96756.44
2023-01-02T10:32:01.283Z,96749.53
2023-01-02T10:35:11.083Z,96749.53
2023-01-02T10:37:38.160Z,96745.88
2023-01-02T10:40:05.675Z,96742.31
2023-01-02T10:42:34.166Z,96740.81
2023-01-02T10:45:01.340Z,96736.81
2023-01-02T10:47:39.183Z,96727.00
2023-01-02T10:50:14.708Z,96719.84
2023-01-02T10:53:06.010Z,96721.34
2023-01-02T10:55:35.757Z,96716.44
2023-01-02T10:58:17.362Z,96715.06
2023-01-02T11:00:44.378Z,96708.44
2023-01-02T11:03:17.230Z,96709.28
2023-01-02T11:05:47.557Z,96710.44
2023-01-02T11:08:18.071Z,96704.91
2023-01-02T11:10:45.484Z,96703.97
2023-01-02T11:13:18.181Z,96695.06
2023-01-02T11:16:06.319Z,96703.72
2023-01-02T11:18:35.327Z,96699.31
2023-01-02T11:21:05.239Z,96695.88
2023-01-02T11:23:37.887Z,96699.13
2023-01-02T11:26:10.493Z,96691.53
2023-01-02T11:28:39.958Z,96694.44
2023-01-02T11:31:13.894Z,96690.50
2023-01-02T11:33:42.859Z,96682.59
2023-01-02T11:36:12.633Z,96681.78
2023-01-02T11:38:59.235Z,96676.78
2023-01-02T11:41:47.949Z,96669.63
2023-01-02T11:44:23.649Z,96675.44
2023-01-02T11:46:51.248Z,96665.88
2023-01-02T11:49:21.396Z,96653.09
2023-01-02T11:51:56.564Z,96647.16
2023-01-02T11:54:31.262Z,96651.44
2023-01-02T11:57:00.354Z,96646.53
2023-01-02T11:59:40.991Z,96649.50
2023-01-02T12:13:57.291Z,96646.13
2023-01-02T12:16:47.850Z,96654.41
2023-01-02T12:19:36.391Z,96652.63
2023-01-02T12:22:49.982Z,96645.63
2023-01-02T12:25:35.438Z,96638.84
2023-01-02T12:28:25.913Z,96641.94
2023-01-02T12:31:26.091Z,96638.31
2023-01-02T12:34:27.401Z,96636.22
2023-01-02T12:37:10.569Z,96640.19
2023-01-02T12:40:06.536Z,96632.88
2023-01-02T12:42:52.340Z,96628.22
2023-01-02T12:45:44.649Z,96631.56
2023-01-02T12:48:36.160Z,96626.47
2023-01-02T12:51:09.044Z,96622.72
2023-01-02T12:54:20.516Z,96628.34
2023-01-02T12:57:02.911Z,96620.22
2023-01-02T13:00:08.440Z,96626.63
2023-01-02T13:03:20.182Z,96624.25
2023-01-02T13:05:55.658Z,96629.25
2023-01-02T13:09:00.759Z,96618.75
2023-01-02T13:11:42.680Z,96612.94
2023-01-02T13:14:17.579Z,96604.50
2023-01-02T13:17:03.541Z,96609.28
2023-01-02T13:19:37.371Z,96611.38
2023-01-02T13:22:20.117Z,96603.28
2023-01-02T13:24:47.898Z,96612.50
2023-01-02T13:27:14.849Z,96605.81
2023-01-02T13:29:44.447Z,96609.19
2023-01-02T13:32:13.739Z,96606.47
2023-01-02T13:34:55.435Z,96610.00
2023-01-02T13:37:26.209Z,96608.84
2023-01-02T13:39:59.480Z,96607.59
2023-01-02T13:42:56.105Z,96612.72
2023-01-02T13:45:33.109Z,96622.22
2023-01-02T13:48:03.370Z,96613.84
2023-01-02T13:50:34.999Z,96616.88
2023-01-02T13:53:20.809Z,96616.88
2023-01-02T13:56:09.258Z,96615.44
2023-01-02T13:59:02.259Z,96619.50
2023-01-02T14:01:40.895Z,96619.69
2023-01-02T14:04:08.012Z,96617.44
2023-01-02T14:06:37.942Z,96627.16
2023-01-02T14:09:04.877Z,96623.88
2023-01-02T14:11:55.322Z,96634.97
2023-01-02T14:14:44.910Z,96639.00
2023-01-02T14:17:42.765Z,96644.66
2023-01-02T14:20:21.093Z,96635.28
2023-01-02T14:22:54.051Z,96638.84
2023-01-02T14:25:21.983Z,96653.19
2023-01-02T14:27:52.590Z,96651.66
2023-01-02T14:30:46.245Z,96647.69
2023-01-02T14:33:21.900Z,96648.47
2023-01-02T14:35:52.610Z,96652.66
2023-01-02T14:38:25.687Z,96653.72
2023-01-02T14:40:53.180Z,96645.75
2023-01-02T14:43:36.108Z,96654.63
2023-01-02T14:46:14.891Z,96651.63
2023-01-02T14:48:41.792Z,96652.59
2023-01-02T14:51:16.379Z,96663.50
2023-01-02T14:54:00.439Z,96660.13
2023-01-02T14:56:33.350Z,96662.41
2023-01-02T14:59:02.118Z,96668.75
2023-01-02T15:01:42.379Z,96665.22
2023-01-02T15:04:26.490Z,96664.19
2023-01-02T15:07:29.802Z,96660.56
2023-01-02T15:10:04.442Z,96671.50
2023-01-02T15:12:53.029Z,96669.75
2023-01-02T15:15:24.865Z,96676.28
2023-01-02T15:17:53.910Z,96674.22
2023-01-02T15:20:24.534Z,96673.53
2023-01-02T15:22:56.385Z,96673.59
2023-01-02T15:25:32.402Z,96679.75
2023-01-02T15:27:59.464Z,96676.41
2023-01-02T15:30:34.630Z,96684.91
2023-01-02T15:33:01.698Z,96682.66
2023-01-02T15:35:30.882Z,96681.94
2023-01-02T15:37:58.071Z,96677.53
2023-01-02T15:40:33.230Z,96684.16
2023-01-02T15:43:24.637Z,96676.00
2023-01-02T15:45:53.191Z,96677.31
2023-01-02T15:48:22.851Z,96675.41
2023-01-02T15:50:55.327Z,96693.91
2023-01-02T15:53:34.733Z,96701.31
2023-01-02T15:56:01.770Z,96695.06
2023-01-02T15:58:31.560Z,96710.13
2023-01-02T16:01:21.573Z,96705.22
2023-01-02T16:04:01.477Z,96704.84
2023-01-02T16:06:39.326Z,96692.34
2023-01-02T16:09:18.832Z,96698.50
2023-01-02T16:11:52.282Z,96691.19
2023-01-02T16:14:36.963Z,96696.50
2023-01-02T16:17:18.039Z,96698.88
2023-01-02T16:19:57.924Z,96698.41
2023-01-02T16:22:53.908Z,96705.34
2023-01-02T16:25:30.330Z,96698.38
2023-01-02T16:28:34.856Z,96712.16
2023-01-02T16:31:17.157Z,96707.78
2023-01-02T16:33:46.057Z,96702.78
2023-01-02T16:36:16.031Z,96704.25
2023-01-02T16:38:46.067Z,96706.53
2023-01-02T16:41:35.620Z,96713.41
2023-01-02T16:44:12.648Z,96707.72
2023-01-02T16:46:41.120Z,96717.22
2023-01-02T16:49:11.924Z,96723.56
2023-01-02T16:51:42.920Z,96720.03
2023-01-02T16:54:14.121Z,96726.34
2023-01-02T16:56:41.161Z,96724.41
2023-01-02T16:59:08.081Z,96724.28
2023-01-02T17:01:35.657Z,96725.34
2023-01-02T17:04:02.758Z,96732.03
2023-01-02T17:06:29.763Z,96729.47
2023-01-02T17:08:56.750Z,96735.13
2023-01-02T17:11:25.031Z,96732.16
2023-01-02T17:13:54.595Z,96738.84
2023-01-02T17:16:21.747Z,96742.56
2023-01-02T17:18:48.736Z,96735.94
2023-01-02T17:21:15.908Z,96742.38
2023-01-02T17:23:42.917Z,96740.56
2023-01-02T17:26:09.869Z,96740.78
2023-01-02T17:28:37.107Z,96738.16
2023-01-02T17:31:04.378Z,96736.59
2023-01-02T17:33:31.360Z,96738.41
2023-01-02T17:35:58.378Z,96740.50
2023-01-02T17:38:25.618Z,96740.09
2023-01-02T17:40:59.105Z,96742.91
2023-01-02T17:43:26.702Z,96740.72
2023-01-02T17:45:53.992Z,96753.19
2023-01-02T17:48:24.568Z,96756.88
2023-01-02T17:50:52.689Z,96754.75
2023-01-02T17:53:19.678Z,96764.22
2023-01-02T17:56:20.591Z,96763.28
2023-01-02T17:58:44.192Z,96766.34
2023-01-02T18:01:19.849Z,96771.44
2023-01-02T18:03:47.269Z,96774.09
2023-01-02T18:06:15.236Z,96765.47
2023-01-02T18:08:42.746Z,96775.91
2023-01-02T18:11:13.853Z,96774.91
2023-01-02T18:13:53.133Z,96783.34
2023-01-02T18:16:27.170Z,96782.09
2023-01-02T18:18:54.315Z,96775.28
2023-01-02T18:21:28.778Z,96774.91
2023-01-02T18:24:02.288Z,96773.94
2023-01-02T18:26:31.164Z,96776.56
2023-01-02T18:29:07.481Z,96770.97
2023-01-02T18:31:41.905Z,96772.78
2023-01-02T18:34:46.668Z,96775.41
2023-01-02T18:37:26.369Z,96777.19
2023-01-02T18:39:55.148Z,96774.78
2023-01-02T18:42:26.818Z,96772.78
2023-01-02T18:44:55.622Z,96776.00
2023-01-02T18:47:29.802Z,96783.66
2023-01-02T18:50:09.089Z,96792.56
2023-01-02T18:52:37.252Z,96792.56
2023-01-02T18:55:12.980Z,96786.97
2023-01-02T18:57:55.681Z,96801.63
2023-01-02T19:00:30.895Z,96793.00
2023-01-02T19:03:03.726Z,96805.63
2023-01-02T19:05:36.520Z,96808.22
2023-01-02T19:08:11.322Z,96816.69
2023-01-02T19:10:41.746Z,96814.88
2023-01-02T19:13:37.932Z,96816.50
2023-01-02T19:16:11.383Z,96812.84
2023-01-02T19:18:46.406Z,96811.28
2023-01-02T19:21:29.694Z,96803.44
2023-01-02T19:24:16.494Z,96803.22
2023-01-02T19:26:46.263Z,96802.00
2023-01-02T19:29:13.462Z,96810.25
2023-01-02T19:31:44.964Z,96798.97
2023-01-02T19:34:40.783Z,96802.56
2023-01-02T19:37:13.831Z,96822.38
2023-01-02T19:39:55.923Z,96826.25
2023-01-02T19:42:24.836Z,96816.69
2023-01-02T19:44:57.183Z,96820.66
2023-01-02T19:47:30.331Z,96817.09
2023-01-02T19:49:58.189Z,96823.13
2023-01-02T19:52:27.262Z,96814.09
2023-01-02T19:54:54.655Z,96818.88
2023-01-02T19:57:22.922Z,96824.72
2023-01-02T19:59:50.543Z,96822.31
2023-01-02T20:02:19.821Z,96826.94
2023-01-02T20:04:50.271Z,96827.34
2023-01-02T20:07:17.413Z,96829.94
2023-01-02T20:09:44.877Z,96833.97
2023-01-02T20:12:30.508Z,96841.16
2023-01-02T20:14:59.050Z,96846.78
2023-01-02T20:17:28.679Z,96849.59
2023-01-02T20:19:56.082Z,96862.03
2023-01-02T20:22:23.192Z,96858.22
2023-01-02T20:24:50.232Z,96870.47
2023-01-02T20:27:17.248Z,96867.69
2023-01-02T20:29:44.153Z,96863.28
2023-01-02T20:32:11.142Z,96880.53
2023-01-02T20:34:38.474Z,96881.13
2023-01-02T20:37:05.951Z,96886.53
2023-01-02T20:39:32.884Z,96890.94
2023-01-02T20:41:59.822Z,96891.75
2023-01-02T20:44:26.845Z,96900.00
2023-01-02T20:46:56.364Z,96897.31
2023-01-02T20:49:25.601Z,96901.53
2023-01-02T20:51:56.161Z,96909.94
2023-01-02T20:54:24.009Z,96899.72
2023-01-02T20:56:51.352Z,96900.16
2023-01-02T20:59:18.351Z,96900.53
2023-01-02T21:01:45.561Z,96913.38
2023-01-02T21:04:12.904Z,96913.38
2023-01-02T21:06:41.322Z,96904.38
2023-01-02T21:09:08.501Z,96912.78
2023-01-02T21:11:35.601Z,96912.41
2023-01-02T21:14:03.152Z,96922.41
2023-01-02T21:16:31.121Z,96918.41
2023-01-02T21:18:59.900Z,96921.03
2023-01-02T21:21:27.224Z,96924.63
2023-01-02T21:23:54.250Z,96936.25
2023-01-02T21:26:23.707Z,96929.84
2023-01-02T21:28:51.666Z,96931.84
2023-01-02T21:31:20.288Z,96942.66
2023-01-02T21:33:48.001Z,96944.09
2023-01-02T21:36:15.939Z,96943.84
2023-01-02T21:38:43.972Z,96952.28
2023-01-02T21:41:29.408Z,96956.25
2023-01-02T21:43:56.459Z,96963.88
2023-01-02T21:46:23.570Z,96972.91
2023-01-02T21:48:50.544Z,96973.06
2023-01-02T21:51:17.491Z,96973.06
2023-01-02T21:53:44.464Z,96976.03
2023-01-02T21:56:11.492Z,96988.25
2023-01-02T21:58:38.482Z,96982.25
2023-01-02T22:01:05.637Z,96990.06
2023-01-02T22:03:32.695Z,96985.22
2023-01-02T22:05:59.718Z,97001.44
2023-01-02T22:08:26.749Z,97006.25
2023-01-02T22:11:13.622Z,97007.84
2023-01-02T22:13:40.657Z,97018.25
2023-01-02T22:16:08.356Z,97022.69
2023-01-02T22:18:38.336Z,97030.44
2023-01-02T22:21:05.571Z,97037.47
2023-01-02T22:23:33.381Z,97042.84
2023-01-02T22:26:00.524Z,97036.59
2023-01-02T22:28:27.730Z,97040.41
2023-01-02T22:30:54.836Z,97045.41
2023-01-02T22:33:22.150Z,97050.97
2023-01-02T22:35:49.367Z,97047.16
2023-01-02T22:38:16.611Z,97044.13
2023-01-02T22:40:43.530Z,97037.13
2023-01-02T22:43:16.820Z,97044.31
2023-01-02T22:45:53.312Z,97049.34
2023-01-02T22:48:25.633Z,97035.72
2023-01-02T22:50:56.719Z,97037.72
2023-01-02T22:53:25.943Z,97042.50
2023-01-02T22:55:53.388Z,97036.84
2023-01-02T22:58:21.740Z,97039.06
2023-01-02T23:00:56.740Z,97041.47
2023-01-02T23:03:23.757Z,97044.44
2023-01-02T23:05:50.657Z,97044.03
2023-01-02T23:08:17.651Z,97040.59
2023-01-02T23:10:44.650Z,97043.78
2023-01-02T23:13:11.599Z,97051.00
2023-01-02T23:15:59.809Z,97044.50
2023-01-02T23:18:47.243Z,97037.84
2023-01-02T23:21:16.080Z,97035.81
2023-01-02T23:23:43.329Z,97036.81
2023-01-02T23:26:11.092Z,97038.31
2023-01-02T23:31:25.164Z,97030.78
2023-01-02T23:33:52.133Z,97027.31
2023-01-02T23:36:19.067Z,97033.81
2023-01-02T23:38:46.080Z,97033.41
2023-01-02T23:41:12.961Z,97030.81
2023-01-02T23:43:40.053Z,97031.16
2023-01-02T23:46:07.604Z,97025.38
2023-01-02T23:48:34.550Z,97027.34
2023-01-02T23:51:04.138Z,97033.34
2023-01-02T23:53:32.326Z,97033.16
2023-01-02T23:55:59.372Z,97026.94
2023-01-02T23:58:26.532Z,97030.34
